NKS212 TIST-KFLL
Flight info
| Callsign | NKS212 |
|---|---|
| Flight time | N/A |
| Altitude | 38000 |
| Route | PALCO7 PALCO RTE6 SJU DCT ACONY Y280 SAPPO Y399 ZQA OLAHS3 |
| Aircraft | A319/M-SDE3FGHIRWY/LB1 |
Departure
| Time | 2026-04-28 23:50 |
|---|---|
| Airport | Cyril E. King Airport (TIST) |
Arrival
| Time | N/A |
|---|---|
| Airport | Fort Lauderdale Hollywood International Airport (KFLL) |
| Time | Latitude | Longitude | Altitude | Speed | Heading |
|---|---|---|---|---|---|
| 2026-04-28 23:05 | 18.33451 | -64.97270 | 28 ft | 0 kts | 43° |
| 2026-04-28 23:36 | 18.33444 | -64.97277 | 28 ft | 2 kts | 44° |
| 2026-04-28 23:36 | 18.33434 | -64.97288 | 28 ft | 2 kts | 43° |
| 2026-04-28 23:36 | 18.33425 | -64.97297 | 27 ft | 1 kts | 44° |
| 2026-04-28 23:36 | 18.33415 | -64.97304 | 27 ft | 2 kts | 5° |
| 2026-04-28 23:37 | 18.33400 | -64.97299 | 27 ft | 2 kts | 312° |
| 2026-04-28 23:37 | 18.33397 | -64.97295 | 27 ft | 0 kts | 302° |
| 2026-04-28 23:38 | 18.33408 | -64.97311 | 26 ft | 9 kts | 310° |
| 2026-04-28 23:38 | 18.33453 | -64.97360 | 26 ft | 11 kts | 317° |
| 2026-04-28 23:39 | 18.33520 | -64.97396 | 26 ft | 13 kts | 351° |
| 2026-04-28 23:39 | 18.33602 | -64.97401 | 26 ft | 14 kts | 359° |
| 2026-04-28 23:39 | 18.33680 | -64.97432 | 26 ft | 13 kts | 322° |
| 2026-04-28 23:39 | 18.33737 | -64.97404 | 27 ft | 17 kts | 89° |
| 2026-04-28 23:40 | 18.33737 | -64.97244 | 29 ft | 28 kts | 89° |
| 2026-04-28 23:40 | 18.33743 | -64.97071 | 30 ft | 25 kts | 86° |
| 2026-04-28 23:40 | 18.33753 | -64.96903 | 30 ft | 23 kts | 84° |
| 2026-04-28 23:40 | 18.33757 | -64.96773 | 30 ft | 22 kts | 90° |
| 2026-04-28 23:41 | 18.33693 | -64.96680 | 28 ft | 11 kts | 166° |
| 2026-04-28 23:41 | 18.33677 | -64.96618 | 28 ft | 10 kts | 85° |
| 2026-04-28 23:41 | 18.33681 | -64.96531 | 30 ft | 16 kts | 87° |
| 2026-04-28 23:41 | 18.33686 | -64.96448 | 32 ft | 10 kts | 87° |
| 2026-04-28 23:42 | 18.33686 | -64.96446 | 32 ft | 0 kts | 87° |
| 2026-04-28 23:45 | 18.33687 | -64.96413 | 34 ft | 7 kts | 88° |
| 2026-04-28 23:45 | 18.33689 | -64.96371 | 35 ft | 6 kts | 84° |
| 2026-04-28 23:46 | 18.33698 | -64.96345 | 36 ft | 0 kts | 49° |
| 2026-04-28 23:47 | 18.33700 | -64.96343 | 36 ft | 4 kts | 47° |
| 2026-04-28 23:47 | 18.33739 | -64.96323 | 37 ft | 9 kts | 4° |
| 2026-04-28 23:47 | 18.33775 | -64.96341 | 36 ft | 4 kts | 271° |
| 2026-04-28 23:47 | 18.33775 | -64.96342 | 36 ft | 0 kts | 269° |
| 2026-04-28 23:49 | 18.33768 | -64.96533 | 30 ft | 69 kts | 266° |
| 2026-04-28 23:49 | 18.33735 | -64.97263 | 30 ft | 141 kts | 268° |
| 2026-04-28 23:49 | 18.33684 | -64.98291 | 463 ft | 155 kts | 255° |
| 2026-04-28 23:50 | 18.33119 | -64.99101 | 1028 ft | 158 kts | 214° |
| 2026-04-28 23:50 | 18.32407 | -64.99749 | 1529 ft | 173 kts | 226° |
| 2026-04-28 23:50 | 18.31647 | -65.00848 | 2085 ft | 187 kts | 234° |
| 2026-04-28 23:50 | 18.30916 | -65.02059 | 2543 ft | 208 kts | 236° |
| 2026-04-28 23:51 | 18.30147 | -65.03356 | 3100 ft | 223 kts | 236° |
| 2026-04-28 23:51 | 18.29316 | -65.04752 | 3701 ft | 238 kts | 236° |
| 2026-04-28 23:51 | 18.28398 | -65.06266 | 4340 ft | 254 kts | 236° |
| 2026-04-28 23:51 | 18.27526 | -65.07687 | 4880 ft | 268 kts | 238° |
| 2026-04-28 23:52 | 18.26844 | -65.09537 | 5470 ft | 283 kts | 264° |
| 2026-04-28 23:52 | 18.26944 | -65.11416 | 6268 ft | 284 kts | 282° |
| 2026-04-28 23:52 | 18.27368 | -65.13378 | 7131 ft | 286 kts | 285° |
| 2026-04-28 23:52 | 18.27788 | -65.15262 | 7949 ft | 288 kts | 283° |
| 2026-04-28 23:53 | 18.28182 | -65.17288 | 8789 ft | 290 kts | 281° |
| 2026-04-28 23:53 | 18.28533 | -65.19355 | 9589 ft | 292 kts | 280° |
| 2026-04-28 23:53 | 18.28863 | -65.21452 | 10354 ft | 295 kts | 279° |
| 2026-04-28 23:53 | 18.29126 | -65.23147 | 10757 ft | 304 kts | 280° |
| 2026-04-28 23:54 | 18.29542 | -65.25308 | 11082 ft | 321 kts | 282° |
| 2026-04-28 23:54 | 18.29964 | -65.27348 | 11363 ft | 336 kts | 282° |
| 2026-04-28 23:54 | 18.30476 | -65.29801 | 11656 ft | 352 kts | 282° |
| 2026-04-28 23:54 | 18.30940 | -65.32031 | 12046 ft | 362 kts | 282° |
| 2026-04-28 23:55 | 18.31487 | -65.34659 | 12723 ft | 364 kts | 282° |
| 2026-04-28 23:55 | 18.32020 | -65.37234 | 13381 ft | 366 kts | 282° |
| 2026-04-28 23:55 | 18.32534 | -65.39719 | 13977 ft | 369 kts | 282° |
| 2026-04-28 23:55 | 18.33075 | -65.42341 | 14573 ft | 371 kts | 282° |
| 2026-04-28 23:56 | 18.33620 | -65.44990 | 15133 ft | 375 kts | 282° |
| 2026-04-28 23:56 | 18.34137 | -65.47508 | 15657 ft | 377 kts | 282° |
| 2026-04-28 23:56 | 18.34658 | -65.50042 | 16165 ft | 380 kts | 281° |
| 2026-04-28 23:56 | 18.35194 | -65.52663 | 16678 ft | 382 kts | 281° |
| 2026-04-28 23:57 | 18.35661 | -65.54943 | 17120 ft | 384 kts | 281° |
| 2026-04-28 23:57 | 18.36174 | -65.57447 | 17572 ft | 387 kts | 281° |
| 2026-04-28 23:57 | 18.36737 | -65.60192 | 18055 ft | 389 kts | 281° |
| 2026-04-28 23:57 | 18.37225 | -65.62566 | 18488 ft | 391 kts | 281° |
| 2026-04-28 23:58 | 18.37715 | -65.64945 | 18925 ft | 392 kts | 281° |
| 2026-04-28 23:58 | 18.38166 | -65.67134 | 19333 ft | 393 kts | 281° |
| 2026-04-28 23:58 | 18.38641 | -65.69447 | 19740 ft | 394 kts | 280° |
| 2026-04-28 23:58 | 18.39099 | -65.71686 | 20110 ft | 396 kts | 280° |
| 2026-04-28 23:59 | 18.39494 | -65.73616 | 20430 ft | 397 kts | 280° |
| 2026-04-28 23:59 | 18.40034 | -65.76255 | 20879 ft | 398 kts | 280° |
| 2026-04-28 23:59 | 18.40608 | -65.79071 | 21378 ft | 398 kts | 280° |
| 2026-04-28 23:59 | 18.41177 | -65.81864 | 21823 ft | 399 kts | 279° |
| 2026-04-29 00:00 | 18.41729 | -65.84582 | 22227 ft | 400 kts | 279° |
| 2026-04-29 00:00 | 18.42246 | -65.87131 | 22606 ft | 401 kts | 279° |
| 2026-04-29 00:00 | 18.42778 | -65.89750 | 22978 ft | 402 kts | 279° |
| 2026-04-29 00:00 | 18.43314 | -65.92392 | 23334 ft | 404 kts | 279° |
| 2026-04-29 00:01 | 18.43861 | -65.95011 | 23681 ft | 407 kts | 282° |
| 2026-04-29 00:01 | 18.44711 | -65.97514 | 23987 ft | 413 kts | 291° |
| 2026-04-29 00:01 | 18.45986 | -65.99871 | 24290 ft | 419 kts | 301° |
| 2026-04-29 00:01 | 18.47735 | -66.02089 | 24615 ft | 427 kts | 310° |
| 2026-04-29 00:02 | 18.49849 | -66.04265 | 24990 ft | 429 kts | 311° |
| 2026-04-29 00:02 | 18.52017 | -66.06436 | 25289 ft | 433 kts | 312° |
| 2026-04-29 00:02 | 18.54102 | -66.08520 | 25590 ft | 435 kts | 312° |
| 2026-04-29 00:02 | 18.56294 | -66.10716 | 25966 ft | 436 kts | 311° |
| 2026-04-29 00:03 | 18.58443 | -66.12876 | 26321 ft | 437 kts | 311° |
| 2026-04-29 00:03 | 18.60592 | -66.15044 | 26656 ft | 438 kts | 311° |
| 2026-04-29 00:03 | 18.62760 | -66.17236 | 26973 ft | 440 kts | 311° |
| 2026-04-29 00:03 | 18.64978 | -66.19482 | 27303 ft | 442 kts | 311° |
| 2026-04-29 00:04 | 18.67157 | -66.21690 | 27624 ft | 443 kts | 311° |
| 2026-04-29 00:04 | 18.69200 | -66.23764 | 27928 ft | 445 kts | 311° |
| 2026-04-29 00:04 | 18.71422 | -66.26018 | 28253 ft | 446 kts | 310° |
| 2026-04-29 00:04 | 18.73648 | -66.28278 | 28580 ft | 447 kts | 310° |
| 2026-04-29 00:05 | 18.75758 | -66.30419 | 28980 ft | 445 kts | 310° |
| 2026-04-29 00:05 | 18.77951 | -66.32647 | 29408 ft | 444 kts | 310° |
| 2026-04-29 00:05 | 18.79888 | -66.34614 | 29792 ft | 442 kts | 310° |
| 2026-04-29 00:05 | 18.82143 | -66.36910 | 30245 ft | 440 kts | 310° |
| 2026-04-29 00:06 | 18.84246 | -66.39050 | 30661 ft | 439 kts | 309° |
| 2026-04-29 00:06 | 18.86416 | -66.41264 | 31078 ft | 437 kts | 309° |
| 2026-04-29 00:06 | 18.88591 | -66.43479 | 31498 ft | 436 kts | 309° |
| 2026-04-29 00:06 | 18.90761 | -66.45691 | 31881 ft | 435 kts | 309° |
| 2026-04-29 00:07 | 18.92712 | -66.47783 | 32229 ft | 432 kts | 306° |
| 2026-04-29 00:07 | 18.94684 | -66.50118 | 32609 ft | 429 kts | 304° |
| 2026-04-29 00:07 | 18.96618 | -66.52515 | 32989 ft | 429 kts | 303° |
| 2026-04-29 00:07 | 18.98516 | -66.54899 | 33403 ft | 428 kts | 303° |
| 2026-04-29 00:08 | 19.00117 | -66.56911 | 33792 ft | 426 kts | 303° |
| 2026-04-29 00:08 | 19.01898 | -66.59147 | 34231 ft | 423 kts | 303° |
| 2026-04-29 00:08 | 19.03417 | -66.61056 | 34574 ft | 422 kts | 303° |
| 2026-04-29 00:08 | 19.05080 | -66.63144 | 34934 ft | 421 kts | 303° |
| 2026-04-29 00:09 | 19.06743 | -66.65235 | 35290 ft | 419 kts | 303° |
| 2026-04-29 00:09 | 19.08329 | -66.67229 | 35627 ft | 418 kts | 303° |
| 2026-04-29 00:09 | 19.10046 | -66.69391 | 35963 ft | 417 kts | 303° |
| 2026-04-29 00:09 | 19.11775 | -66.71564 | 36275 ft | 416 kts | 303° |
| 2026-04-29 00:10 | 19.13456 | -66.73682 | 36542 ft | 416 kts | 303° |
| 2026-04-29 00:10 | 19.15150 | -66.75815 | 36771 ft | 416 kts | 303° |
| 2026-04-29 00:10 | 19.16864 | -66.77974 | 36951 ft | 417 kts | 303° |
| 2026-04-29 00:10 | 19.18572 | -66.80125 | 37141 ft | 418 kts | 303° |
| 2026-04-29 00:11 | 19.20247 | -66.82238 | 37279 ft | 420 kts | 304° |
| 2026-04-29 00:11 | 19.22059 | -66.84520 | 37420 ft | 421 kts | 304° |
| 2026-04-29 00:11 | 19.25175 | -66.88448 | 37719 ft | 422 kts | 304° |
| 2026-04-29 00:12 | 19.26768 | -66.90456 | 37858 ft | 422 kts | 304° |
| 2026-04-29 00:12 | 19.28373 | -66.92481 | 37987 ft | 423 kts | 304° |
| 2026-04-29 00:12 | 19.30175 | -66.94758 | 38002 ft | 423 kts | 304° |
| 2026-04-29 00:13 | 19.33872 | -66.99425 | 38006 ft | 424 kts | 304° |
| 2026-04-29 00:13 | 19.37519 | -67.04032 | 38004 ft | 423 kts | 304° |
| 2026-04-29 00:14 | 19.41228 | -67.08723 | 37999 ft | 424 kts | 304° |
| 2026-04-29 00:14 | 19.44890 | -67.13361 | 38005 ft | 425 kts | 304° |
| 2026-04-29 00:15 | 19.48504 | -67.17938 | 38007 ft | 425 kts | 304° |
| 2026-04-29 00:15 | 19.52121 | -67.22523 | 38021 ft | 424 kts | 304° |
| 2026-04-29 00:16 | 19.55608 | -67.26949 | 38020 ft | 424 kts | 304° |
| 2026-04-29 00:16 | 19.59026 | -67.31291 | 38017 ft | 425 kts | 304° |
| 2026-04-29 00:17 | 19.62381 | -67.35553 | 38013 ft | 424 kts | 304° |
| 2026-04-29 00:17 | 19.65822 | -67.39927 | 38013 ft | 426 kts | 304° |
| 2026-04-29 00:18 | 19.69245 | -67.44285 | 38015 ft | 426 kts | 304° |
| 2026-04-29 00:18 | 19.72734 | -67.48731 | 38011 ft | 426 kts | 304° |
| 2026-04-29 00:19 | 19.76219 | -67.53171 | 38013 ft | 425 kts | 304° |
| 2026-04-29 00:19 | 19.79716 | -67.57628 | 38015 ft | 426 kts | 304° |
| 2026-04-29 00:20 | 19.83092 | -67.61940 | 38012 ft | 426 kts | 304° |
| 2026-04-29 00:20 | 19.86372 | -67.66131 | 38015 ft | 428 kts | 304° |
| 2026-04-29 00:21 | 19.89698 | -67.70380 | 38012 ft | 429 kts | 303° |
| 2026-04-29 00:21 | 19.93453 | -67.75185 | 38014 ft | 429 kts | 304° |
| 2026-04-29 00:22 | 19.97242 | -67.80035 | 38012 ft | 429 kts | 304° |
| 2026-04-29 00:22 | 20.01028 | -67.84888 | 38008 ft | 429 kts | 304° |
| 2026-04-29 00:23 | 20.04829 | -67.89762 | 38011 ft | 429 kts | 303° |
| 2026-04-29 00:23 | 20.08597 | -67.94599 | 38013 ft | 429 kts | 304° |
| 2026-04-29 00:24 | 20.12392 | -67.99474 | 38013 ft | 429 kts | 303° |
| 2026-04-29 00:24 | 20.16104 | -68.04246 | 38017 ft | 429 kts | 303° |
| 2026-04-29 00:25 | 20.19883 | -68.09113 | 38013 ft | 428 kts | 303° |
| 2026-04-29 00:25 | 20.23630 | -68.13940 | 38012 ft | 428 kts | 303° |
| 2026-04-29 00:26 | 20.27404 | -68.18807 | 38012 ft | 428 kts | 303° |
| 2026-04-29 00:26 | 20.30977 | -68.23421 | 38015 ft | 427 kts | 303° |
| 2026-04-29 00:27 | 20.34692 | -68.28223 | 38020 ft | 427 kts | 303° |
| 2026-04-29 00:27 | 20.38271 | -68.32854 | 38019 ft | 426 kts | 303° |
| 2026-04-29 00:28 | 20.41925 | -68.37618 | 38018 ft | 426 kts | 302° |
| 2026-04-29 00:28 | 20.45078 | -68.42370 | 38022 ft | 422 kts | 296° |
| 2026-04-29 00:29 | 20.47873 | -68.47337 | 38025 ft | 420 kts | 295° |
| 2026-04-29 00:29 | 20.50520 | -68.52138 | 38023 ft | 420 kts | 295° |
| 2026-04-29 00:30 | 20.53176 | -68.56966 | 38021 ft | 420 kts | 295° |
| 2026-04-29 00:30 | 20.55955 | -68.62012 | 38023 ft | 420 kts | 295° |
| 2026-04-29 00:31 | 20.58665 | -68.66942 | 38029 ft | 419 kts | 295° |
| 2026-04-29 00:31 | 20.61194 | -68.71542 | 38025 ft | 418 kts | 295° |
| 2026-04-29 00:32 | 20.63855 | -68.76386 | 38029 ft | 418 kts | 295° |
| 2026-04-29 00:32 | 20.66404 | -68.81033 | 38017 ft | 418 kts | 295° |
| 2026-04-29 00:33 | 20.69363 | -68.86424 | 38019 ft | 418 kts | 295° |
| 2026-04-29 00:33 | 20.72295 | -68.91779 | 38019 ft | 418 kts | 295° |
| 2026-04-29 00:34 | 20.75219 | -68.97122 | 38014 ft | 418 kts | 295° |
| 2026-04-29 00:34 | 20.78151 | -69.02487 | 38013 ft | 417 kts | 295° |
| 2026-04-29 00:35 | 20.81061 | -69.07814 | 38019 ft | 417 kts | 295° |
| 2026-04-29 00:35 | 20.83981 | -69.13165 | 38027 ft | 417 kts | 295° |
| 2026-04-29 00:36 | 20.86892 | -69.18504 | 38027 ft | 417 kts | 295° |
| 2026-04-29 00:36 | 20.89786 | -69.23818 | 38030 ft | 416 kts | 295° |
| 2026-04-29 00:37 | 20.92611 | -69.29009 | 38029 ft | 416 kts | 295° |
| 2026-04-29 00:37 | 20.95528 | -69.34371 | 38033 ft | 416 kts | 295° |
| 2026-04-29 00:38 | 20.98413 | -69.39683 | 38032 ft | 416 kts | 295° |
| 2026-04-29 00:38 | 21.01314 | -69.45026 | 38037 ft | 415 kts | 295° |
| 2026-04-29 00:39 | 21.04185 | -69.50326 | 38038 ft | 415 kts | 295° |
| 2026-04-29 00:39 | 21.07052 | -69.55621 | 38037 ft | 414 kts | 295° |
| 2026-04-29 00:40 | 21.09935 | -69.60947 | 38038 ft | 414 kts | 294° |
| 2026-04-29 00:40 | 21.12758 | -69.66174 | 38041 ft | 414 kts | 294° |
| 2026-04-29 00:41 | 21.15514 | -69.71277 | 38040 ft | 414 kts | 294° |
| 2026-04-29 00:41 | 21.18404 | -69.76635 | 38041 ft | 415 kts | 294° |
| 2026-04-29 00:42 | 21.21265 | -69.81943 | 38039 ft | 415 kts | 294° |
| 2026-04-29 00:42 | 21.24146 | -69.87297 | 38040 ft | 415 kts | 294° |
| 2026-04-29 00:43 | 21.27036 | -69.92671 | 38041 ft | 416 kts | 294° |
| 2026-04-29 00:43 | 21.29916 | -69.98032 | 38042 ft | 416 kts | 295° |
| 2026-04-29 00:44 | 21.32794 | -70.03391 | 38040 ft | 416 kts | 294° |
| 2026-04-29 00:44 | 21.35674 | -70.08761 | 38036 ft | 417 kts | 295° |
| 2026-04-29 00:45 | 21.38560 | -70.14147 | 38042 ft | 416 kts | 294° |
| 2026-04-29 00:45 | 21.41389 | -70.19434 | 38037 ft | 416 kts | 294° |
| 2026-04-29 00:46 | 21.44267 | -70.24816 | 38038 ft | 416 kts | 295° |
| 2026-04-29 00:46 | 21.47132 | -70.30179 | 38049 ft | 416 kts | 294° |
| 2026-04-29 00:47 | 21.49998 | -70.35550 | 38041 ft | 416 kts | 295° |
| 2026-04-29 00:47 | 21.52873 | -70.40942 | 38041 ft | 416 kts | 295° |
| 2026-04-29 00:48 | 21.55749 | -70.46343 | 38049 ft | 416 kts | 295° |
| 2026-04-29 00:48 | 21.58600 | -70.51701 | 38041 ft | 416 kts | 295° |
| 2026-04-29 00:49 | 21.61485 | -70.57127 | 38044 ft | 417 kts | 295° |
| 2026-04-29 00:49 | 21.64350 | -70.62524 | 38045 ft | 416 kts | 295° |
| 2026-04-29 00:50 | 21.67190 | -70.67877 | 38043 ft | 416 kts | 295° |
| 2026-04-29 00:50 | 21.70059 | -70.73292 | 38044 ft | 417 kts | 295° |
| 2026-04-29 00:51 | 21.72917 | -70.78691 | 38046 ft | 417 kts | 295° |
| 2026-04-29 00:51 | 21.75787 | -70.84117 | 38047 ft | 417 kts | 295° |
| 2026-04-29 00:52 | 21.78642 | -70.89518 | 38049 ft | 417 kts | 295° |
| 2026-04-29 00:52 | 21.81507 | -70.94949 | 38047 ft | 417 kts | 295° |
| 2026-04-29 00:53 | 21.84377 | -71.00391 | 38050 ft | 418 kts | 295° |
| 2026-04-29 00:53 | 21.87232 | -71.05811 | 38053 ft | 418 kts | 295° |
| 2026-04-29 00:54 | 21.90085 | -71.11234 | 38051 ft | 417 kts | 295° |
| 2026-04-29 00:54 | 21.92955 | -71.16694 | 38056 ft | 417 kts | 295° |
| 2026-04-29 00:55 | 21.95802 | -71.22118 | 38052 ft | 418 kts | 295° |
| 2026-04-29 00:55 | 21.98665 | -71.27576 | 38055 ft | 418 kts | 295° |
| 2026-04-29 00:56 | 22.01509 | -71.33003 | 38055 ft | 419 kts | 295° |
| 2026-04-29 00:56 | 22.04371 | -71.38470 | 38058 ft | 418 kts | 295° |
| 2026-04-29 00:57 | 22.07213 | -71.43904 | 38056 ft | 418 kts | 295° |
| 2026-04-29 00:57 | 22.10078 | -71.49386 | 38058 ft | 418 kts | 295° |
| 2026-04-29 00:58 | 22.12910 | -71.54813 | 38058 ft | 417 kts | 295° |
| 2026-04-29 00:58 | 22.15695 | -71.60156 | 38056 ft | 417 kts | 295° |
| 2026-04-29 00:59 | 22.18534 | -71.65610 | 38059 ft | 417 kts | 295° |
| 2026-04-29 00:59 | 22.21377 | -71.71075 | 38058 ft | 417 kts | 295° |
| 2026-04-29 01:00 | 22.24191 | -71.76492 | 38057 ft | 417 kts | 295° |
| 2026-04-29 01:00 | 22.27036 | -71.81973 | 38057 ft | 416 kts | 295° |
| 2026-04-29 01:01 | 22.29847 | -71.87392 | 38056 ft | 417 kts | 295° |
| 2026-04-29 01:01 | 22.32689 | -71.92876 | 38057 ft | 417 kts | 295° |
| 2026-04-29 01:02 | 22.35403 | -71.98120 | 38056 ft | 418 kts | 295° |
| 2026-04-29 01:02 | 22.38209 | -72.03549 | 38056 ft | 417 kts | 295° |
| 2026-04-29 01:03 | 22.41026 | -72.09006 | 38054 ft | 416 kts | 295° |
| 2026-04-29 01:03 | 22.43744 | -72.14277 | 38056 ft | 416 kts | 295° |
| 2026-04-29 01:04 | 22.46556 | -72.19732 | 38055 ft | 417 kts | 295° |
| 2026-04-29 01:04 | 22.49380 | -72.25216 | 38057 ft | 416 kts | 295° |
| 2026-04-29 01:05 | 22.52187 | -72.30677 | 38054 ft | 417 kts | 295° |
| 2026-04-29 01:05 | 22.55001 | -72.36156 | 38057 ft | 417 kts | 295° |
| 2026-04-29 01:06 | 22.57573 | -72.41172 | 38057 ft | 417 kts | 295° |
| 2026-04-29 01:06 | 22.60276 | -72.46446 | 38056 ft | 418 kts | 295° |
| 2026-04-29 01:07 | 22.62914 | -72.51599 | 38056 ft | 417 kts | 295° |
| 2026-04-29 01:07 | 22.65585 | -72.56821 | 38056 ft | 418 kts | 295° |
| 2026-04-29 01:08 | 22.68315 | -72.62169 | 38055 ft | 417 kts | 295° |
| 2026-04-29 01:08 | 22.70967 | -72.67373 | 38058 ft | 417 kts | 295° |
| 2026-04-29 01:09 | 22.73754 | -72.72845 | 38059 ft | 417 kts | 295° |
| 2026-04-29 01:09 | 22.76569 | -72.78364 | 38057 ft | 418 kts | 295° |
| 2026-04-29 01:10 | 22.79369 | -72.83855 | 38059 ft | 417 kts | 295° |
| 2026-04-29 01:10 | 22.82167 | -72.89359 | 38056 ft | 418 kts | 295° |
| 2026-04-29 01:11 | 22.84951 | -72.94848 | 38057 ft | 418 kts | 295° |
| 2026-04-29 01:11 | 22.87694 | -73.00264 | 38059 ft | 418 kts | 295° |
| 2026-04-29 01:12 | 22.90152 | -73.05121 | 38056 ft | 418 kts | 295° |
| 2026-04-29 01:12 | 22.92936 | -73.10636 | 38063 ft | 418 kts | 295° |